createdAt,value
2022-08-30T00:00:30.949Z,24.85
2022-08-30T00:03:01.296Z,24.77
2022-08-30T00:05:30.982Z,24.83
2022-08-30T00:07:59.564Z,24.84
2022-08-30T00:10:29.626Z,24.90
2022-08-30T00:13:00.853Z,24.96
2022-08-30T00:15:30.623Z,24.97
2022-08-30T00:17:58.765Z,24.98
2022-08-30T00:20:32.142Z,25.16
2022-08-30T00:23:00.376Z,25.14
2022-08-30T00:25:29.099Z,25.16
2022-08-30T00:27:57.700Z,25.20
2022-08-30T00:30:26.636Z,25.24
2022-08-30T00:32:54.898Z,25.26
2022-08-30T00:35:23.727Z,25.28
2022-08-30T00:37:51.916Z,25.30
2022-08-30T00:40:27.309Z,25.26
2022-08-30T00:42:59.856Z,25.34
2022-08-30T00:45:34.848Z,25.32
2022-08-30T00:48:06.392Z,25.25
2022-08-30T00:50:47.756Z,25.29
2022-08-30T00:53:23.509Z,25.23
2022-08-30T00:55:52.771Z,25.18
2022-08-30T00:58:29.954Z,25.17
2022-08-30T01:01:01.972Z,25.12
2022-08-30T01:03:38.691Z,25.09
2022-08-30T01:06:08.015Z,24.78
2022-08-30T01:08:36.306Z,24.83
2022-08-30T01:11:05.681Z,24.93
2022-08-30T01:13:36.116Z,24.95
2022-08-30T01:16:05.330Z,24.99
2022-08-30T01:18:33.683Z,24.96
2022-08-30T01:21:23.069Z,24.93
2022-08-30T01:23:55.961Z,24.90
2022-08-30T01:26:26.372Z,24.90
2022-08-30T01:29:02.830Z,24.90
2022-08-30T01:31:35.447Z,24.84
2022-08-30T01:34:08.194Z,24.82
2022-08-30T01:36:44.652Z,24.78
2022-08-30T01:39:19.129Z,24.71
2022-08-30T01:41:47.221Z,24.62
2022-08-30T01:44:15.537Z,24.58
2022-08-30T01:46:47.732Z,24.59
2022-08-30T01:49:18.985Z,24.51
2022-08-30T01:52:00.619Z,24.45
2022-08-30T01:54:33.202Z,24.39
2022-08-30T01:57:10.819Z,24.33
2022-08-30T01:59:43.561Z,24.26
2022-08-30T02:02:12.594Z,24.24
2022-08-30T02:04:41.070Z,24.25
2022-08-30T02:07:09.468Z,24.24
2022-08-30T02:09:39.620Z,24.22
2022-08-30T02:12:08.550Z,24.20
2022-08-30T02:14:38.450Z,24.18
2022-08-30T02:17:10.470Z,24.15
2022-08-30T02:19:39.083Z,24.12
2022-08-30T02:22:07.865Z,24.07
2022-08-30T02:24:35.784Z,24.06
2022-08-30T02:27:04.176Z,24.04
2022-08-30T02:29:32.154Z,24.00
2022-08-30T02:32:01.618Z,23.99
2022-08-30T02:34:29.758Z,23.92
2022-08-30T02:36:57.893Z,23.92
2022-08-30T02:39:26.909Z,23.93
2022-08-30T02:41:55.889Z,23.93
2022-08-30T02:44:24.306Z,23.92
2022-08-30T02:46:52.510Z,23.91
2022-08-30T02:49:35.718Z,23.91
2022-08-30T02:52:09.076Z,23.88
2022-08-30T02:54:37.369Z,23.83
2022-08-30T02:57:08.897Z,23.85
2022-08-30T02:59:48.917Z,23.81
2022-08-30T03:02:18.272Z,23.82
2022-08-30T03:04:47.989Z,23.80
2022-08-30T03:07:16.775Z,23.83
2022-08-30T03:09:45.210Z,23.81
2022-08-30T03:12:15.789Z,23.77
2022-08-30T03:14:44.034Z,23.70
2022-08-30T03:17:15.799Z,23.60
2022-08-30T03:19:45.213Z,23.51
2022-08-30T03:22:13.408Z,23.44
2022-08-30T03:24:42.031Z,23.36
2022-08-30T03:27:10.315Z,23.28
2022-08-30T03:29:39.528Z,23.24
2022-08-30T03:32:07.886Z,23.18
2022-08-30T03:34:36.168Z,23.17
2022-08-30T03:37:05.973Z,23.17
2022-08-30T03:39:36.727Z,23.12
2022-08-30T03:42:07.108Z,23.08
2022-08-30T03:44:36.161Z,23.07
2022-08-30T03:47:06.171Z,23.08
2022-08-30T03:49:37.597Z,23.10
2022-08-30T03:52:06.890Z,23.13
2022-08-30T03:54:35.331Z,23.14
2022-08-30T03:57:07.928Z,23.13
2022-08-30T03:59:41.198Z,23.12
2022-08-30T04:02:09.817Z,23.13
2022-08-30T04:04:39.064Z,23.11
2022-08-30T04:07:07.075Z,23.10
2022-08-30T04:09:36.230Z,23.13
2022-08-30T04:12:04.619Z,23.15
2022-08-30T04:14:33.394Z,23.16
2022-08-30T04:17:01.997Z,23.16
2022-08-30T04:19:30.490Z,23.25
2022-08-30T04:21:58.573Z,23.28
2022-08-30T04:24:27.532Z,23.28
2022-08-30T04:26:55.653Z,23.34
2022-08-30T04:29:23.815Z,23.34
2022-08-30T04:31:52.264Z,23.35
2022-08-30T04:34:21.200Z,23.34
2022-08-30T04:36:49.948Z,23.35
2022-08-30T04:39:19.697Z,23.37
2022-08-30T04:41:48.918Z,23.29
2022-08-30T04:44:19.672Z,23.35
2022-08-30T04:46:48.485Z,23.32
2022-08-30T04:49:16.776Z,23.34
2022-08-30T04:51:45.230Z,23.35
2022-08-30T04:54:14.561Z,23.33
2022-08-30T04:56:44.122Z,23.36
2022-08-30T04:59:13.219Z,23.35
2022-08-30T05:01:45.390Z,23.37
2022-08-30T05:04:15.748Z,23.39
2022-08-30T05:06:44.233Z,23.42
2022-08-30T05:09:13.311Z,23.43
2022-08-30T05:11:43.383Z,23.46
2022-08-30T05:14:11.828Z,23.43
2022-08-30T05:16:41.883Z,23.46
2022-08-30T05:19:10.776Z,23.41
2022-08-30T05:21:41.287Z,23.42
2022-08-30T05:24:09.491Z,23.37
2022-08-30T05:26:39.832Z,23.42
2022-08-30T05:29:08.310Z,23.41
2022-08-30T05:31:37.750Z,23.49
2022-08-30T05:34:05.819Z,23.57
2022-08-30T05:36:36.573Z,23.67
2022-08-30T05:39:07.769Z,23.73
2022-08-30T05:41:38.742Z,23.77
2022-08-30T05:44:09.161Z,23.84
2022-08-30T05:46:39.540Z,23.89
2022-08-30T05:49:08.618Z,23.92
2022-08-30T05:51:43.051Z,23.94
2022-08-30T05:54:16.717Z,23.97
2022-08-30T05:56:46.422Z,23.96
2022-08-30T05:59:15.592Z,23.94
2022-08-30T06:01:47.285Z,23.96
2022-08-30T06:04:16.163Z,23.93
2022-08-30T06:06:45.754Z,23.95
2022-08-30T06:09:16.390Z,23.92
2022-08-30T06:11:47.117Z,23.91
2022-08-30T06:14:17.669Z,23.96
2022-08-30T06:16:48.725Z,23.99
2022-08-30T06:19:17.203Z,24.03
2022-08-30T06:21:49.026Z,24.05
2022-08-30T06:24:56.309Z,24.11
2022-08-30T06:27:31.756Z,24.18
2022-08-30T06:29:59.883Z,24.27
2022-08-30T06:32:28.153Z,24.38
2022-08-30T06:34:56.296Z,24.48
2022-08-30T06:37:29.620Z,24.58
2022-08-30T06:40:00.507Z,24.68
2022-08-30T06:42:33.693Z,24.71
2022-08-30T06:45:03.315Z,24.82
2022-08-30T06:47:41.171Z,24.88
2022-08-30T06:50:12.754Z,24.95
2022-08-30T06:52:44.720Z,25.00
2022-08-30T06:55:16.859Z,25.07
2022-08-30T06:57:47.104Z,25.10
2022-08-30T07:00:17.981Z,25.16
2022-08-30T07:02:47.932Z,25.18
2022-08-30T07:05:19.046Z,25.25
2022-08-30T07:07:47.103Z,25.27
2022-08-30T07:10:18.634Z,25.33
2022-08-30T07:12:46.833Z,25.34
2022-08-30T07:15:20.578Z,25.41
2022-08-30T07:18:08.092Z,25.45
2022-08-30T07:20:40.574Z,25.54
2022-08-30T07:23:10.689Z,25.61
2022-08-30T07:25:41.633Z,25.68
2022-08-30T07:28:13.707Z,25.72
2022-08-30T07:30:43.136Z,25.79
2022-08-30T07:33:11.177Z,25.81
2022-08-30T07:35:40.360Z,25.83
2022-08-30T07:38:14.869Z,25.89
2022-08-30T07:40:42.968Z,25.91
2022-08-30T07:43:11.321Z,25.99
2022-08-30T07:45:40.848Z,26.07
2022-08-30T07:48:11.582Z,26.15
2022-08-30T07:50:46.251Z,26.19
2022-08-30T07:53:14.950Z,26.27
2022-08-30T07:55:42.921Z,26.38
2022-08-30T07:58:10.894Z,26.42
2022-08-30T08:00:41.378Z,26.47
2022-08-30T08:03:10.990Z,26.53
2022-08-30T08:05:45.282Z,26.60
2022-08-30T08:08:14.488Z,26.69
2022-08-30T08:10:43.331Z,26.76
2022-08-30T08:13:12.595Z,26.80
2022-08-30T08:15:41.226Z,26.82
2022-08-30T08:18:09.505Z,26.93
2022-08-30T08:20:38.512Z,26.94
2022-08-30T08:23:06.959Z,27.06
2022-08-30T08:25:41.025Z,27.15
2022-08-30T08:28:09.586Z,27.17
2022-08-30T08:30:39.441Z,27.23
2022-08-30T08:33:07.792Z,27.26
2022-08-30T08:35:36.033Z,27.37
2022-08-30T08:38:06.251Z,27.48
2022-08-30T08:41:15.053Z,27.61
2022-08-30T08:43:45.595Z,27.68
2022-08-30T08:46:57.377Z,27.81
2022-08-30T08:49:25.345Z,27.69
2022-08-30T08:52:14.372Z,27.90
2022-08-30T08:54:47.438Z,28.05
2022-08-30T08:57:17.042Z,28.15
2022-08-30T08:59:45.931Z,28.22
2022-08-30T09:02:39.391Z,28.38
2022-08-30T09:05:09.352Z,28.44
2022-08-30T09:07:45.520Z,28.55
2022-08-30T09:10:14.731Z,28.68
2022-08-30T09:12:45.125Z,28.76
2022-08-30T09:15:26.849Z,28.92
2022-08-30T09:18:04.437Z,28.92
2022-08-30T09:20:47.674Z,29.17
2022-08-30T09:23:24.373Z,29.32
2022-08-30T09:26:08.207Z,29.43
2022-08-30T09:28:52.442Z,29.53
2022-08-30T09:31:24.017Z,29.62
2022-08-30T09:34:03.775Z,29.49
2022-08-30T09:36:52.295Z,29.70
2022-08-30T09:39:38.451Z,29.84
2022-08-30T09:42:21.839Z,29.90
2022-08-30T09:44:51.684Z,29.95
2022-08-30T09:47:31.933Z,30.05
2022-08-30T09:50:19.164Z,30.10
2022-08-30T09:53:02.883Z,30.19
2022-08-30T09:55:49.023Z,30.25
2022-08-30T09:58:45.751Z,30.33
2022-08-30T10:01:41.509Z,30.40
2022-08-30T10:04:31.081Z,30.46
2022-08-30T10:07:20.915Z,30.52
2022-08-30T10:10:03.459Z,30.59
2022-08-30T10:12:49.846Z,30.65
2022-08-30T10:16:08.020Z,30.70
2022-08-30T10:19:35.715Z,30.74
2022-08-30T10:22:23.952Z,30.82
2022-08-30T10:25:16.297Z,30.90
2022-08-30T10:28:04.965Z,30.94
2022-08-30T10:30:40.638Z,31.01
2022-08-30T10:33:31.810Z,31.06
2022-08-30T10:36:10.456Z,31.14
2022-08-30T10:38:44.738Z,31.21
2022-08-30T10:41:25.231Z,31.32
2022-08-30T10:44:04.509Z,31.34
2022-08-30T10:46:57.989Z,31.38
2022-08-30T10:49:30.890Z,31.36
2022-08-30T10:52:48.307Z,31.40
2022-08-30T10:55:25.669Z,31.44
2022-08-30T10:58:02.200Z,31.48
2022-08-30T11:00:44.626Z,31.51
2022-08-30T11:03:49.294Z,31.50
2022-08-30T11:06:29.443Z,31.54
2022-08-30T11:09:53.858Z,31.56
2022-08-30T11:12:29.105Z,31.62
2022-08-30T11:14:58.076Z,31.59
2022-08-30T11:17:44.137Z,31.75
2022-08-30T11:20:31.877Z,31.81
2022-08-30T11:23:33.360Z,31.87
2022-08-30T11:26:20.501Z,31.92
2022-08-30T11:28:50.675Z,31.92
2022-08-30T11:31:18.572Z,31.97
2022-08-30T11:33:50.690Z,31.99
2022-08-30T11:36:46.061Z,31.99
2022-08-30T11:39:49.629Z,31.95
2022-08-30T11:42:35.091Z,31.94
2022-08-30T11:45:28.102Z,31.94
2022-08-30T11:48:05.929Z,31.93
2022-08-30T11:51:10.911Z,31.91
2022-08-30T11:53:59.372Z,31.93
2022-08-30T11:56:37.533Z,31.92
2022-08-30T11:59:37.586Z,31.94
2022-08-30T12:02:08.196Z,31.92
2022-08-30T12:04:47.451Z,32.04
2022-08-30T12:08:01.284Z,32.06
2022-08-30T12:10:56.118Z,32.13
2022-08-30T12:13:34.673Z,32.19
2022-08-30T12:17:04.181Z,32.28
2022-08-30T12:19:34.319Z,32.34
2022-08-30T12:22:08.472Z,32.41
2022-08-30T12:24:57.656Z,32.56
2022-08-30T12:27:32.765Z,32.66
2022-08-30T12:30:28.306Z,32.74
2022-08-30T12:32:59.108Z,32.80
2022-08-30T12:35:28.401Z,32.68
2022-08-30T12:38:16.557Z,32.90
2022-08-30T12:41:00.894Z,32.98
2022-08-30T12:43:41.311Z,33.08
2022-08-30T12:46:15.575Z,33.10
2022-08-30T12:48:45.065Z,33.15
2022-08-30T12:51:53.912Z,33.12
2022-08-30T12:54:31.095Z,33.11
2022-08-30T12:57:34.876Z,33.09
2022-08-30T12:59:59.752Z,33.09
2022-08-30T13:02:45.163Z,33.10
2022-08-30T13:05:34.855Z,33.09
2022-08-30T13:08:53.565Z,33.06
2022-08-30T13:11:22.489Z,33.08
2022-08-30T13:14:30.535Z,33.17
2022-08-30T13:17:23.792Z,33.20
2022-08-30T13:20:06.659Z,33.26
2022-08-30T13:22:38.458Z,33.27
2022-08-30T13:25:10.996Z,33.32
2022-08-30T13:27:40.637Z,33.34
2022-08-30T13:30:14.622Z,33.38
2022-08-30T13:32:43.463Z,33.38
2022-08-30T13:35:13.139Z,33.40
2022-08-30T13:37:47.237Z,33.43
2022-08-30T13:40:21.574Z,33.42
2022-08-30T13:42:51.431Z,33.43
2022-08-30T13:48:11.893Z,33.44
2022-08-30T13:50:40.348Z,33.48
2022-08-30T13:53:10.896Z,33.50
2022-08-30T13:55:42.082Z,33.56
2022-08-30T13:58:13.366Z,33.55
2022-08-30T14:00:42.406Z,33.58
2022-08-30T14:03:13.427Z,33.56
2022-08-30T14:06:00.382Z,33.61
2022-08-30T14:08:49.842Z,33.60
2022-08-30T14:11:23.223Z,33.58
2022-08-30T14:16:43.857Z,33.63
2022-08-30T14:19:14.391Z,33.66
2022-08-30T14:21:43.823Z,33.64
2022-08-30T14:24:19.916Z,33.66
2022-08-30T14:26:51.642Z,33.64
2022-08-30T14:29:24.414Z,33.64
2022-08-30T14:31:55.851Z,33.61
2022-08-30T14:34:28.297Z,33.63
2022-08-30T14:36:56.784Z,33.63
2022-08-30T14:39:26.201Z,33.62
2022-08-30T14:41:56.130Z,33.67
2022-08-30T14:44:26.790Z,33.64
2022-08-30T14:46:56.131Z,33.66
2022-08-30T14:49:24.959Z,33.63
2022-08-30T14:51:56.604Z,33.62
2022-08-30T14:54:28.543Z,33.54
2022-08-30T14:56:58.664Z,33.57
2022-08-30T14:59:28.198Z,33.62
2022-08-30T15:01:58.157Z,33.59
2022-08-30T15:04:27.142Z,33.69
2022-08-30T15:06:56.000Z,33.72
2022-08-30T15:09:25.319Z,33.75
2022-08-30T15:12:00.248Z,33.75
2022-08-30T15:14:29.912Z,33.82
2022-08-30T15:17:00.063Z,33.84
2022-08-30T15:19:28.998Z,33.77
2022-08-30T15:22:04.829Z,33.85
2022-08-30T15:24:34.276Z,33.80
2022-08-30T15:27:03.637Z,33.84
2022-08-30T15:29:33.318Z,33.94
2022-08-30T15:32:03.822Z,33.93
2022-08-30T15:34:34.441Z,33.88
2022-08-30T15:37:02.915Z,33.85
2022-08-30T15:39:31.386Z,33.80
2022-08-30T15:42:01.519Z,33.73
2022-08-30T15:44:31.541Z,33.80
2022-08-30T15:47:00.596Z,33.76
2022-08-30T15:49:29.251Z,33.74
2022-08-30T15:52:02.228Z,33.65
2022-08-30T15:54:34.258Z,33.66
2022-08-30T15:57:05.869Z,33.66
2022-08-30T15:59:35.870Z,33.57
2022-08-30T16:02:04.162Z,33.56
2022-08-30T16:04:33.950Z,33.62
2022-08-30T16:07:02.051Z,33.64
2022-08-30T16:09:32.514Z,33.56
2022-08-30T16:12:02.652Z,33.60
2022-08-30T16:14:33.673Z,33.45
2022-08-30T16:17:03.147Z,33.57
2022-08-30T16:19:31.667Z,33.46
2022-08-30T16:22:00.083Z,33.50
2022-08-30T16:24:28.555Z,33.46
2022-08-30T16:26:56.619Z,33.56
2022-08-30T16:29:25.283Z,33.44
2022-08-30T16:31:53.650Z,33.45
2022-08-30T16:34:23.426Z,33.37
2022-08-30T16:36:54.088Z,33.45
2022-08-30T16:39:22.493Z,33.41
2022-08-30T16:41:50.453Z,33.38
2022-08-30T16:44:18.749Z,33.37
2022-08-30T16:46:53.777Z,33.30
2022-08-30T16:49:25.427Z,33.26
2022-08-30T16:51:54.091Z,33.18
2022-08-30T16:54:22.252Z,33.03
2022-08-30T16:56:50.487Z,33.03
2022-08-30T16:59:18.894Z,32.98
2022-08-30T17:01:48.323Z,32.91
2022-08-30T17:04:19.552Z,32.84
2022-08-30T17:06:49.781Z,32.71
2022-08-30T17:09:19.883Z,32.70
2022-08-30T17:11:48.794Z,32.70
2022-08-30T17:14:22.903Z,32.61
2022-08-30T17:17:00.465Z,32.68
2022-08-30T17:19:46.692Z,32.56
2022-08-30T17:22:14.953Z,32.55
2022-08-30T17:24:43.060Z,32.56
2022-08-30T17:27:11.874Z,32.50
2022-08-30T17:29:39.884Z,32.47
2022-08-30T17:32:07.994Z,32.46
2022-08-30T17:34:37.153Z,32.41
2022-08-30T17:37:05.829Z,32.30
2022-08-30T17:39:35.004Z,32.34
2022-08-30T17:42:04.929Z,32.34
2022-08-30T17:44:38.088Z,32.33
2022-08-30T17:47:10.992Z,32.23
2022-08-30T17:49:39.509Z,32.13
2022-08-30T17:52:07.780Z,32.22
2022-08-30T17:54:40.704Z,32.19
2022-08-30T17:57:11.524Z,32.14
2022-08-30T17:59:40.850Z,32.10
2022-08-30T18:02:11.189Z,32.08
2022-08-30T18:04:43.717Z,32.02
2022-08-30T18:07:16.113Z,31.97
2022-08-30T18:09:46.749Z,31.94
2022-08-30T18:12:15.705Z,31.89
2022-08-30T18:14:47.258Z,31.85
2022-08-30T18:17:22.124Z,31.67
2022-08-30T18:19:50.759Z,31.69
2022-08-30T18:22:19.563Z,31.67
2022-08-30T18:24:47.673Z,31.55
2022-08-30T18:27:16.621Z,31.57
2022-08-30T18:29:44.850Z,31.50
2022-08-30T18:32:13.086Z,31.50
2022-08-30T18:34:44.475Z,31.46
2022-08-30T18:37:13.232Z,31.18
2022-08-30T18:39:43.374Z,31.25
2022-08-30T18:42:11.813Z,31.25
2022-08-30T18:44:40.398Z,31.23
2022-08-30T18:47:13.436Z,31.17
2022-08-30T18:49:43.227Z,31.10
2022-08-30T18:52:12.029Z,30.98
2022-08-30T18:54:52.553Z,30.99
2022-08-30T18:57:22.505Z,30.75
2022-08-30T18:59:51.294Z,30.83
2022-08-30T19:02:20.356Z,30.81
2022-08-30T19:04:49.250Z,30.73
2022-08-30T19:07:19.467Z,30.72
2022-08-30T19:09:47.904Z,30.73
2022-08-30T19:12:16.142Z,30.68
2022-08-30T19:14:44.573Z,30.64
2022-08-30T19:17:13.785Z,30.61
2022-08-30T19:19:48.115Z,30.62
2022-08-30T19:22:27.410Z,30.60
2022-08-30T19:24:58.601Z,30.52
2022-08-30T19:27:38.565Z,30.51
2022-08-30T19:30:18.635Z,30.48
2022-08-30T19:32:50.962Z,30.32
2022-08-30T19:35:20.422Z,30.35
2022-08-30T19:37:48.539Z,30.37
2022-08-30T19:40:19.500Z,30.36
2022-08-30T19:42:50.984Z,30.26
2022-08-30T19:45:23.225Z,30.20
2022-08-30T19:47:53.440Z,30.15
2022-08-30T19:50:22.654Z,30.13
2022-08-30T19:52:54.450Z,30.16
2022-08-30T19:55:28.451Z,30.15
2022-08-30T19:57:58.607Z,30.01
2022-08-30T20:00:30.633Z,30.02
2022-08-30T20:03:16.108Z,30.01
2022-08-30T20:05:44.496Z,29.92
2022-08-30T20:08:13.004Z,29.97
2022-08-30T20:10:44.141Z,29.96
2022-08-30T20:13:13.091Z,29.92
2022-08-30T20:15:41.745Z,29.90
2022-08-30T20:18:13.378Z,29.76
2022-08-30T20:20:49.629Z,29.84
2022-08-30T20:23:26.235Z,29.79
2022-08-30T20:25:55.632Z,29.75
2022-08-30T20:28:25.665Z,29.65
2022-08-30T20:30:55.982Z,29.71
2022-08-30T20:33:26.064Z,29.54
2022-08-30T20:35:55.649Z,29.67
2022-08-30T20:38:26.503Z,29.52
2022-08-30T20:40:58.568Z,29.61
2022-08-30T20:43:31.603Z,29.61
2022-08-30T20:46:00.052Z,29.54
2022-08-30T20:48:29.051Z,29.57
2022-08-30T20:51:04.859Z,29.48
2022-08-30T20:53:33.620Z,29.52
2022-08-30T20:56:02.362Z,29.50
2022-08-30T20:58:31.119Z,29.52
2022-08-30T21:00:59.838Z,29.43
2022-08-30T21:03:28.265Z,29.41
2022-08-30T21:06:00.846Z,29.36
2022-08-30T21:08:28.953Z,29.38
2022-08-30T21:10:57.469Z,29.29
2022-08-30T21:13:26.590Z,29.35
2022-08-30T21:16:00.387Z,29.22
2022-08-30T21:18:34.135Z,29.29
2022-08-30T21:21:21.366Z,29.25
2022-08-30T21:24:01.225Z,29.13
2022-08-30T21:26:31.479Z,29.08
2022-08-30T21:29:00.378Z,29.14
2022-08-30T21:31:30.399Z,29.08
2022-08-30T21:33:58.966Z,29.00
2022-08-30T21:36:46.608Z,29.08
2022-08-30T21:39:27.456Z,29.04
2022-08-30T21:42:01.461Z,28.99
2022-08-30T21:44:29.765Z,28.94
2022-08-30T21:46:59.177Z,28.90
2022-08-30T21:49:27.474Z,28.89
2022-08-30T21:52:00.153Z,28.84
2022-08-30T21:54:31.427Z,28.81
2022-08-30T21:57:02.356Z,28.92
2022-08-30T21:59:31.562Z,28.88
2022-08-30T22:02:00.088Z,28.83
2022-08-30T22:04:29.619Z,28.88
2022-08-30T22:06:57.856Z,28.74
2022-08-30T22:09:26.207Z,28.69
2022-08-30T22:11:57.219Z,28.77
2022-08-30T22:14:26.805Z,28.69
2022-08-30T22:16:55.254Z,28.69
2022-08-30T22:19:24.375Z,28.71
2022-08-30T22:21:55.456Z,28.70
2022-08-30T22:24:31.855Z,28.66
2022-08-30T22:27:05.089Z,28.67
2022-08-30T22:29:33.475Z,28.57
2022-08-30T22:32:04.513Z,28.60
2022-08-30T22:34:33.788Z,28.55
2022-08-30T22:37:01.883Z,28.50
2022-08-30T22:39:30.517Z,28.47
2022-08-30T22:41:58.513Z,28.51
2022-08-30T22:44:27.812Z,28.53
2022-08-30T22:46:56.239Z,28.51
2022-08-30T22:49:24.392Z,28.53
2022-08-30T22:51:53.091Z,28.50
2022-08-30T22:54:22.691Z,28.51
2022-08-30T22:56:50.723Z,28.49
2022-08-30T22:59:18.905Z,28.43
2022-08-30T23:01:47.259Z,28.46
2022-08-30T23:04:15.523Z,28.35
2022-08-30T23:06:50.049Z,28.42
2022-08-30T23:09:19.105Z,28.37
2022-08-30T23:11:50.057Z,28.46
2022-08-30T23:14:18.400Z,28.34
2022-08-30T23:16:47.030Z,28.30
2022-08-30T23:19:16.723Z,28.40
2022-08-30T23:21:45.014Z,28.35
2022-08-30T23:24:32.924Z,28.26
2022-08-30T23:27:19.922Z,28.30
2022-08-30T23:30:06.593Z,28.33
2022-08-30T23:32:53.480Z,28.24
2022-08-30T23:35:40.447Z,28.28
2022-08-30T23:38:27.438Z,28.08
2022-08-30T23:41:14.297Z,27.99
2022-08-30T23:44:01.108Z,27.90
2022-08-30T23:46:47.880Z,27.81
2022-08-30T23:49:34.800Z,27.71
2022-08-30T23:52:22.351Z,27.67
2022-08-30T23:55:09.511Z,27.53
2022-08-30T23:57:56.676Z,27.56
